Time;durP1;ratioP1;P1;durP2;ratioP2;P2;SDS_P1;SDS_P2;PMS_P1;PMS_P2;Temp;Humidity;BMP_temperature;BMP_pressure;BME280_temperature;BME280_humidity;BME280_pressure;Samples;Min_cycle;Max_cycle;Signal;HPM_P1;HPM_P2
2021/03/11 00:02:38;;;;;;;87.22;33.60;;;;;;;-5.52;59.90;99317.83;2178466;81;21304;-64
2021/03/11 00:05:40;;;;;;;82.70;31.75;;;;;;;-5.50;60.60;99302.08;2178844;81;21142;-66
2021/03/11 00:08:42;;;;;;;74.60;30.10;;;;;;;-5.42;60.61;99296.20;2178451;81;21273;-65
2021/03/11 00:11:44;;;;;;;74.50;30.45;;;;;;;-5.36;60.38;99292.86;2178613;81;21744;-67
2021/03/11 00:14:46;;;;;;;86.63;29.92;;;;;;;-5.39;60.76;99299.22;2178495;81;21253;-65
2021/03/11 00:17:48;;;;;;;71.72;23.90;;;;;;;-5.42;60.50;99294.08;2178835;81;21293;-65
2021/03/11 00:20:50;;;;;;;71.50;30.02;;;;;;;-5.40;60.74;99285.59;2178427;81;21340;-65
2021/03/11 00:23:52;;;;;;;76.33;29.85;;;;;;;-5.34;60.57;99283.92;2178512;81;21123;-65
2021/03/11 00:26:54;;;;;;;75.90;31.40;;;;;;;-5.20;60.75;99285.34;2178489;81;21277;-65
2021/03/11 00:29:56;;;;;;;86.00;31.10;;;;;;;-5.22;60.23;99281.50;2178807;81;21155;-66
2021/03/11 00:32:58;;;;;;;80.38;31.77;;;;;;;-5.26;60.49;99273.36;2178461;81;21159;-66
2021/03/11 00:36:01;;;;;;;88.12;32.67;;;;;;;-5.31;60.37;99271.19;2178303;82;21118;-66
2021/03/11 00:39:03;;;;;;;88.15;33.15;;;;;;;-5.40;60.48;99269.40;2178399;81;21721;-64
2021/03/11 00:42:05;;;;;;;87.47;32.55;;;;;;;-5.45;60.80;99269.33;2178454;81;21312;-65
2021/03/11 00:45:08;;;;;;;80.65;31.20;;;;;;;-5.46;60.92;99266.75;2150772;82;21728;-65
2021/03/11 00:48:10;;;;;;;84.17;33.23;;;;;;;-5.47;60.90;99268.47;2178467;81;21289;-65
2021/03/11 00:51:12;;;;;;;77.67;29.77;;;;;;;-5.46;61.10;99266.36;2178614;81;21269;-64
2021/03/11 00:54:14;;;;;;;79.92;31.70;;;;;;;-5.49;61.20;99264.17;2178820;81;21281;-64
2021/03/11 00:57:16;;;;;;;83.17;31.52;;;;;;;-5.49;61.10;99263.73;2178825;81;21300;-65
2021/03/11 01:00:18;;;;;;;80.72;32.90;;;;;;;-5.51;61.05;99262.03;2178405;81;21305;-64
2021/03/11 01:03:20;;;;;;;90.00;35.28;;;;;;;-5.57;61.32;99261.11;2178453;81;21716;-64
2021/03/11 01:06:22;;;;;;;100.22;40.43;;;;;;;-5.50;61.81;99265.00;2178571;81;21277;-67
2021/03/11 01:09:24;;;;;;;127.25;47.20;;;;;;;-5.48;61.40;99265.89;2178495;81;21710;-68
2021/03/11 01:12:26;;;;;;;108.57;42.40;;;;;;;-5.69;61.63;99258.84;2178446;81;21269;-68
2021/03/11 01:15:28;;;;;;;174.05;60.25;;;;;;;-5.79;61.81;99260.42;2178602;81;21308;-64
2021/03/11 01:18:30;;;;;;;108.45;39.88;;;;;;;-5.85;61.58;99259.08;2178599;81;21268;-64
2021/03/11 01:21:32;;;;;;;87.35;34.15;;;;;;;-5.87;61.60;99262.05;2178642;81;21293;-65
2021/03/11 01:24:34;;;;;;;86.47;33.20;;;;;;;-5.93;61.96;99266.23;2178676;81;21717;-65
2021/03/11 01:27:36;;;;;;;79.55;32.83;;;;;;;-5.92;62.11;99273.47;2178615;81;21265;-64
2021/03/11 01:30:38;;;;;;;67.92;26.68;;;;;;;-5.90;62.08;99269.25;2178644;81;21323;-64
2021/03/11 01:33:40;;;;;;;78.85;31.12;;;;;;;-5.92;62.08;99259.02;2178742;81;21732;-64
2021/03/11 01:36:42;;;;;;;78.10;29.95;;;;;;;-5.98;62.06;99249.16;2178631;81;21281;-66
2021/03/11 01:39:44;;;;;;;84.42;34.15;;;;;;;-6.02;62.39;99243.17;2178586;81;21178;-65
2021/03/11 01:42:46;;;;;;;79.40;31.82;;;;;;;-6.04;62.63;99227.38;2178612;81;21288;-66
2021/03/11 01:45:48;;;;;;;67.50;26.10;;;;;;;-6.03;62.79;99225.25;2178919;81;21312;-64
2021/03/11 01:48:50;;;;;;;77.27;31.30;;;;;;;-6.01;62.71;99221.88;2178563;81;21749;-66
2021/03/11 01:51:52;;;;;;;82.30;32.35;;;;;;;-5.98;62.44;99220.62;2168448;81;21321;-66
2021/03/11 01:54:54;;;;;;;85.07;32.00;;;;;;;-6.05;62.63;99219.27;2161201;82;21249;-67
2021/03/11 01:57:56;;;;;;;77.67;33.35;;;;;;;-6.13;62.98;99218.76;2161411;82;21274;-65
2021/03/11 02:00:58;;;;;;;80.12;29.63;;;;;;;-6.18;62.72;99222.94;2161383;82;21733;-64
2021/03/11 02:04:01;;;;;;;73.70;32.33;;;;;;;-6.23;62.82;99219.88;2161191;82;21706;-68
2021/03/11 02:07:03;;;;;;;81.75;34.10;;;;;;;-6.25;63.20;99210.08;2161162;82;21313;-67
2021/03/11 02:10:05;;;;;;;79.35;31.15;;;;;;;-6.21;62.91;99208.86;2161162;82;21294;-65
2021/03/11 02:13:07;;;;;;;73.57;29.72;;;;;;;-6.25;62.99;99198.16;2161561;82;21285;-64
2021/03/11 02:16:09;;;;;;;81.15;34.13;;;;;;;-6.30;63.57;99199.39;2161204;82;21257;-65
2021/03/11 02:19:11;;;;;;;83.60;33.75;;;;;;;-6.28;63.28;99193.90;2161160;82;21100;-65
2021/03/11 02:22:13;;;;;;;78.30;34.08;;;;;;;-6.26;63.56;99192.64;2161186;82;21713;-66
2021/03/11 02:25:15;;;;;;;83.27;34.30;;;;;;;-6.25;63.58;99189.23;2161140;82;21711;-65
2021/03/11 02:28:18;;;;;;;85.28;33.23;;;;;;;-6.22;63.62;99184.58;2161150;82;21643;-68
2021/03/11 02:31:20;;;;;;;88.10;35.38;;;;;;;-6.21;63.75;99174.81;2161275;82;21290;-67
2021/03/11 02:34:22;;;;;;;78.55;32.15;;;;;;;-6.18;63.84;99172.30;2161189;82;21143;-67
2021/03/11 02:37:24;;;;;;;87.33;32.90;;;;;;;-6.17;63.65;99162.53;2161310;82;21281;-68
2021/03/11 02:40:26;;;;;;;70.28;27.75;;;;;;;-6.10;63.58;99154.94;2161264;82;21301;-65
2021/03/11 02:43:28;;;;;;;83.60;34.13;;;;;;;-6.08;63.58;99153.68;2161206;82;21151;-65
2021/03/11 02:46:30;;;;;;;84.37;32.53;;;;;;;-6.08;63.87;99151.55;2161169;82;21104;-67
2021/03/11 02:49:32;;;;;;;;;;;;;;;-6.06;63.48;99140.92;2163548;82;21749;-64
2021/03/11 02:52:34;;;;;;;76.23;32.47;;;;;;;-6.09;63.75;99130.28;2168619;81;20221;-65
2021/03/11 02:55:36;;;;;;;77.22;30.97;;;;;;;-6.11;64.02;99126.83;2171516;82;21298;-64
2021/03/11 02:58:38;;;;;;;75.90;29.95;;;;;;;-6.05;64.23;99119.66;2171248;82;21582;-64
2021/03/11 03:01:40;;;;;;;76.40;31.75;;;;;;;-6.02;64.19;99121.84;2171368;82;21706;-64
2021/03/11 03:04:42;;;;;;;80.80;32.85;;;;;;;-5.94;63.96;99126.55;2171293;82;21764;-63
2021/03/11 03:07:44;;;;;;;75.85;31.45;;;;;;;-5.89;64.22;99109.98;2171203;82;21292;-64
2021/03/11 03:10:46;;;;;;;68.72;30.77;;;;;;;-5.89;64.22;99109.98;2141693;82;21285;-64
2021/03/11 03:13:48;;;;;;;76.50;30.62;;;;;;;-5.93;63.66;99113.38;2171599;82;21288;-65
2021/03/11 03:16:50;;;;;;;75.78;30.23;;;;;;;-5.82;63.76;99106.68;2171570;82;21305;-65
2021/03/11 03:19:52;;;;;;;77.45;31.02;;;;;;;-5.77;63.61;99106.28;2171606;82;21316;-65
2021/03/11 03:22:54;;;;;;;75.67;30.70;;;;;;;-5.77;63.76;99102.88;2171288;82;21269;-64
2021/03/11 03:25:56;;;;;;;;;;;;;;;-5.67;63.47;99103.39;2173846;82;21571;-64
2021/03/11 03:28:58;;;;;;;80.32;30.75;;;;;;;-5.67;63.52;99102.55;2171703;82;20238;-64
2021/03/11 03:32:00;;;;;;;83.75;32.83;;;;;;;-5.66;63.49;99104.23;2171607;82;21268;-65
2021/03/11 03:35:03;;;;;;;74.03;30.05;;;;;;;-5.64;63.29;99111.08;2171227;82;21575;-64
2021/03/11 03:38:05;;;;;;;83.03;34.10;;;;;;;-5.65;63.71;99117.46;2171725;82;21171;-65
2021/03/11 03:41:07;;;;;;;75.55;31.20;;;;;;;-5.65;63.35;99123.85;2171207;82;21276;-64
2021/03/11 03:44:09;;;;;;;79.17;32.53;;;;;;;-5.64;63.24;99128.12;2171217;82;21285;-64
2021/03/11 03:47:11;;;;;;;75.80;31.05;;;;;;;-5.65;63.25;99128.97;2141717;82;21261;-64
2021/03/11 03:50:13;;;;;;;66.82;26.62;;;;;;;-5.71;63.15;99127.20;2171461;82;21289;-64
2021/03/11 03:53:15;;;;;;;80.15;33.05;;;;;;;-5.77;63.40;99119.49;2177392;81;21158;-64
2021/03/11 03:56:17;;;;;;;66.80;27.98;;;;;;;-5.83;63.26;99120.69;2178519;81;21296;-65
2021/03/11 03:59:19;;;;;;;90.40;37.80;;;;;;;-5.90;63.37;99114.69;2178443;82;21284;-64
2021/03/11 04:02:21;;;;;;;93.12;38.45;;;;;;;-5.91;63.47;99111.69;2178662;81;21285;-64
2021/03/11 04:05:23;;;;;;;90.72;37.53;;;;;;;-5.94;63.55;99111.66;2178469;81;21273;-64
2021/03/11 04:08:25;;;;;;;95.10;37.80;;;;;;;-5.99;63.51;99109.09;2178469;81;21264;-64
2021/03/11 04:11:27;;;;;;;87.80;35.43;;;;;;;-5.94;63.55;99102.72;2178486;81;21629;-66
2021/03/11 04:14:29;;;;;;;86.15;35.98;;;;;;;-5.87;63.53;99105.77;2178690;81;21264;-64
2021/03/11 04:17:31;;;;;;;84.35;34.00;;;;;;;-5.93;63.51;99105.28;2178830;81;21336;-64
2021/03/11 04:20:33;;;;;;;76.72;30.23;;;;;;;-5.95;63.66;99095.48;2178439;81;21284;-64
2021/03/11 04:23:35;;;;;;;83.70;32.48;;;;;;;-5.99;63.52;99089.06;2178492;81;21292;-66
2021/03/11 04:26:37;;;;;;;81.00;32.65;;;;;;;-6.05;63.71;99082.19;2178481;81;21158;-66
2021/03/11 04:29:39;;;;;;;77.35;30.08;;;;;;;-6.07;63.78;99084.31;2150797;82;21274;-67
2021/03/11 04:32:41;;;;;;;79.92;34.08;;;;;;;-6.15;63.82;99082.55;2178469;81;21281;-65
2021/03/11 04:35:43;;;;;;;86.20;33.73;;;;;;;-6.14;64.02;99072.74;2178564;81;21272;-67
2021/03/11 04:38:45;;;;;;;81.85;33.00;;;;;;;-6.11;64.20;99072.77;2178810;81;21273;-66
2021/03/11 04:41:47;;;;;;;83.70;33.73;;;;;;;-6.10;64.34;99069.81;2178457;81;21321;-64
2021/03/11 04:44:49;;;;;;;88.85;35.28;;;;;;;-6.06;64.17;99074.52;2178819;81;21158;-67
2021/03/11 04:47:51;;;;;;;69.25;28.20;;;;;;;-6.12;64.28;99074.03;2178451;81;21284;-67
2021/03/11 04:50:53;;;;;;;87.62;34.65;;;;;;;-6.13;64.23;99069.36;2178455;81;21320;-64
2021/03/11 04:53:54;;;;;;;80.00;32.90;;;;;;;-6.10;64.16;99072.37;2161540;81;21293;-68
2021/03/11 04:56:57;;;;;;;85.90;37.85;;;;;;;-6.09;64.10;99070.26;2161289;82;21313;-66
2021/03/11 04:59:59;;;;;;;90.42;38.73;;;;;;;-6.10;64.12;99073.22;2160971;82;21156;-66
2021/03/11 05:03:00;;;;;;;100.42;43.55;;;;;;;-6.03;64.12;99069.44;2161255;82;21301;-65
2021/03/11 05:06:02;;;;;;;101.05;40.48;;;;;;;-5.95;64.11;99062.27;2161036;82;21260;-66
2021/03/11 05:09:04;;;;;;;91.20;37.03;;;;;;;-5.93;63.93;99051.63;2161102;82;21159;-66
2021/03/11 05:12:06;;;;;;;91.53;36.38;;;;;;;-5.97;64.08;99055.47;2161040;82;21155;-64
2021/03/11 05:15:08;;;;;;;85.22;35.50;;;;;;;-5.97;63.97;99048.61;2161022;82;21143;-64
2021/03/11 05:18:10;;;;;;;86.65;34.55;;;;;;;-5.95;64.26;99048.22;2161085;82;21555;-64
2021/03/11 05:21:13;;;;;;;80.70;34.73;;;;;;;-5.89;64.53;99041.44;2161101;82;21716;-65
2021/03/11 05:24:14;;;;;;;86.10;34.85;;;;;;;-5.87;64.14;99030.39;2140045;82;21289;-65
2021/03/11 05:27:16;;;;;;;83.42;33.38;;;;;;;-5.82;64.48;99032.58;2161019;82;21151;-68
2021/03/11 05:30:18;;;;;;;80.57;33.70;;;;;;;-5.80;64.58;99023.64;2161124;82;21563;-64
2021/03/11 05:33:20;;;;;;;82.33;33.92;;;;;;;-5.69;64.34;99021.16;2161030;82;21612;-64
2021/03/11 05:36:23;;;;;;;83.03;33.88;;;;;;;-5.58;64.68;99021.66;2161041;82;21626;-64
2021/03/11 05:39:25;;;;;;;87.27;36.03;;;;;;;-5.44;64.27;99024.33;2160981;82;21670;-64
2021/03/11 05:42:27;;;;;;;88.03;37.17;;;;;;;-5.31;63.94;99019.30;2161048;82;21918;-64
2021/03/11 05:45:29;;;;;;;89.67;35.48;;;;;;;-5.20;63.83;99010.39;2161030;82;21603;-65
2021/03/11 05:48:31;;;;;;;80.42;35.30;;;;;;;-5.09;63.90;99002.36;2160991;82;21131;-64
2021/03/11 05:51:33;;;;;;;86.80;36.93;;;;;;;-4.92;63.78;98996.89;2162584;81;21710;-64
2021/03/11 05:54:35;;;;;;;85.57;36.48;;;;;;;-4.74;63.56;99001.64;2178532;81;21692;-64
2021/03/11 05:57:37;;;;;;;85.97;37.48;;;;;;;-4.66;63.34;98993.57;2178472;81;21308;-65
2021/03/11 06:00:40;;;;;;;90.25;38.02;;;;;;;-4.53;63.33;98986.34;2178545;81;21749;-65
2021/03/11 06:03:42;;;;;;;90.77;36.58;;;;;;;-4.38;63.35;98984.70;2178716;81;21304;-65
2021/03/11 06:06:44;;;;;;;91.45;37.25;;;;;;;-4.15;63.26;98974.48;2178734;81;21714;-64
2021/03/11 06:09:46;;;;;;;79.58;35.10;;;;;;;-3.93;63.06;98966.36;2178796;82;21146;-65
2021/03/11 06:12:49;;;;;;;82.62;35.58;;;;;;;-3.68;62.60;98954.39;2151487;82;21253;-65
2021/03/11 06:15:51;;;;;;;86.42;36.85;;;;;;;-3.53;62.57;98944.52;2178689;81;21578;-65
2021/03/11 06:18:53;;;;;;;80.17;35.08;;;;;;;-3.35;62.17;98942.34;2178479;82;21162;-66
2021/03/11 06:21:55;;;;;;;95.20;39.33;;;;;;;-3.18;61.98;98937.14;2178566;81;21297;-65
2021/03/11 06:24:57;;;;;;;83.20;36.28;;;;;;;-2.94;61.70;98928.92;2178608;81;21300;-68
2021/03/11 06:27:59;;;;;;;84.15;38.63;;;;;;;-2.81;60.80;98920.73;2150652;82;21281;-65
2021/03/11 06:31:01;;;;;;;89.67;40.17;;;;;;;-2.63;60.87;98928.34;2178584;81;21272;-65
2021/03/11 06:34:03;;;;;;;84.50;38.95;;;;;;;-2.50;60.76;98916.68;2150717;82;21300;-67
2021/03/11 06:37:05;;;;;;;79.05;35.48;;;;;;;-2.34;60.32;98913.16;2178577;81;21280;-67
2021/03/11 06:40:07;;;;;;;73.00;33.60;;;;;;;-2.22;59.78;98912.20;2178569;81;21301;-66
2021/03/11 06:43:09;;;;;;;77.32;35.40;;;;;;;-2.03;60.13;98905.19;2178554;81;21586;-70
2021/03/11 06:46:11;;;;;;;74.40;35.50;;;;;;;-1.73;59.68;98912.20;2150778;82;21285;-66
2021/03/11 06:49:14;;;;;;;80.17;37.28;;;;;;;-1.54;59.28;98912.86;2178508;81;21765;-67
2021/03/11 06:52:17;;;;;;;78.52;37.13;;;;;;;-1.41;58.89;98900.71;2173785;81;21721;-66
2021/03/11 06:55:19;;;;;;;86.57;37.73;;;;;;;-1.25;58.68;98894.95;2161174;82;21578;-67
2021/03/11 06:58:21;;;;;;;90.35;39.08;;;;;;;-1.06;58.58;98887.42;2161149;82;21122;-65
2021/03/11 07:01:23;;;;;;;81.65;39.05;;;;;;;-0.91;58.14;98895.81;2161128;82;21155;-66
2021/03/11 07:04:26;;;;;;;81.17;37.65;;;;;;;-0.80;58.25;98890.53;2161146;82;21104;-67
2021/03/11 07:07:28;;;;;;;85.92;39.88;;;;;;;-0.76;57.11;98879.29;2161043;82;21115;-66
2021/03/11 07:10:31;;;;;;;87.92;41.18;;;;;;;-0.77;57.74;98886.63;2161122;82;21108;-68
2021/03/11 07:13:33;;;;;;;87.27;39.88;;;;;;;-0.63;57.92;98878.68;2161155;82;21748;-69
2021/03/11 07:16:35;;;;;;;90.53;40.10;;;;;;;-0.63;57.33;98872.23;2161153;82;21611;-66
2021/03/11 07:19:37;;;;;;;87.57;41.18;;;;;;;-0.56;57.47;98873.84;2161153;82;21750;-66
2021/03/11 07:22:39;;;;;;;92.88;42.00;;;;;;;-0.40;57.42;98862.44;2161128;82;21127;-66
2021/03/11 07:25:41;;;;;;;93.78;42.80;;;;;;;-0.23;56.93;98861.30;2161133;82;21143;-65
2021/03/11 07:28:44;;;;;;;90.10;43.58;;;;;;;-0.08;57.13;98857.19;2161383;82;21111;-66
2021/03/11 07:31:46;;;;;;;86.20;41.55;;;;;;;0.15;56.81;98858.06;2161078;82;21571;-68
2021/03/11 07:34:48;;;;;;;88.07;41.35;;;;;;;0.40;56.19;98858.89;2161102;82;21163;-68
2021/03/11 07:37:51;;;;;;;83.17;38.63;;;;;;;0.60;56.43;98840.88;2161102;82;21143;-67
2021/03/11 07:40:53;;;;;;;86.15;38.50;;;;;;;0.70;55.34;98833.35;2160899;82;21179;-66
2021/03/11 07:43:55;;;;;;;80.20;37.30;;;;;;;0.74;54.93;98832.86;2161123;82;21155;-71
2021/03/11 07:46:57;;;;;;;79.50;35.52;;;;;;;1.01;54.69;98830.13;2161091;82;21170;-67
2021/03/11 07:49:59;;;;;;;70.62;33.55;;;;;;;1.01;54.69;98830.13;2161085;82;21623;-67
2021/03/11 07:53:01;;;;;;;72.17;32.45;;;;;;;1.16;54.06;98834.92;2168177;81;21276;-67
2021/03/11 07:56:03;;;;;;;70.47;32.85;;;;;;;1.32;53.64;98833.29;2178532;81;21716;-67
2021/03/11 07:59:06;;;;;;;95.95;42.65;;;;;;;1.41;53.71;98827.05;2178492;81;21725;-69
2021/03/11 08:02:08;;;;;;;72.55;35.83;;;;;;;1.47;53.09;98825.64;2178575;81;21760;-66
2021/03/11 08:05:10;;;;;;;55.90;25.85;;;;;;;1.48;51.81;98835.94;2178523;81;21122;-66
2021/03/11 08:08:12;;;;;;;;;;;;;;;1.45;52.22;98832.56;2180990;81;21344;-66
2021/03/11 08:11:14;;;;;;;61.42;30.62;;;;;;;1.55;50.35;98833.61;2178468;82;20207;-68
2021/03/11 08:14:16;;;;;;;64.77;30.48;;;;;;;1.57;50.99;98820.65;2178509;81;21253;-67
2021/03/11 08:17:18;;;;;;;56.28;26.00;;;;;;;1.65;49.99;98812.27;2178480;81;21280;-68
2021/03/11 08:20:20;;;;;;;60.05;27.65;;;;;;;1.76;51.14;98805.97;2178581;81;21277;-66
2021/03/11 08:23:22;;;;;;;58.15;26.77;;;;;;;1.90;49.88;98801.29;2178440;81;21679;-66
2021/03/11 08:26:24;;;;;;;58.63;27.52;;;;;;;1.89;48.58;98795.70;2178462;81;21269;-67
2021/03/11 08:29:26;;;;;;;64.17;32.13;;;;;;;1.89;49.82;98777.59;2178466;81;21280;-67
2021/03/11 08:32:28;;;;;;;53.60;25.20;;;;;;;2.02;50.38;98784.59;2178518;81;21272;-66
2021/03/11 08:35:30;;;;;;;58.50;25.27;;;;;;;2.22;49.57;98781.45;2178507;81;22276;-67
2021/03/11 08:38:32;;;;;;;54.73;24.10;;;;;;;2.33;48.78;98770.78;2178431;81;21248;-67
2021/03/11 08:41:35;;;;;;;51.02;22.82;;;;;;;2.34;47.60;98772.06;2178448;81;21154;-66
2021/03/11 08:44:37;;;;;;;56.15;25.02;;;;;;;2.41;48.49;98761.07;2178446;81;21268;-66
2021/03/11 08:47:39;;;;;;;56.55;24.43;;;;;;;2.54;48.31;98761.13;2178418;81;21273;-66
2021/03/11 08:50:41;;;;;;;49.80;22.62;;;;;;;2.48;47.65;98756.57;2178472;81;21581;-66
2021/03/11 08:53:44;;;;;;;54.10;26.30;;;;;;;2.41;48.01;98755.89;2168826;81;21285;-66
2021/03/11 08:56:47;;;;;;;45.65;20.68;;;;;;;2.52;48.21;98746.53;2161003;82;21539;-66
2021/03/11 08:59:49;;;;;;;48.98;21.50;;;;;;;2.70;48.14;98742.53;2161137;82;21734;-66
2021/03/11 09:02:51;;;;;;;43.60;19.62;;;;;;;2.80;48.28;98743.94;2161107;82;21154;-66
2021/03/11 09:05:53;;;;;;;47.50;21.00;;;;;;;2.84;47.09;98727.41;2161068;82;21211;-68
2021/03/11 09:08:55;;;;;;;54.70;22.70;;;;;;;2.90;47.56;98719.89;2140107;82;21729;-69
2021/03/11 09:11:58;;;;;;;45.12;19.20;;;;;;;2.99;47.36;98711.84;2161041;82;21634;-69
2021/03/11 09:15:00;;;;;;;42.05;19.65;;;;;;;3.14;47.42;98706.61;2161091;82;21265;-69
2021/03/11 09:18:02;;;;;;;42.83;19.27;;;;;;;3.16;47.22;98707.84;2161032;82;21164;-66
2021/03/11 09:21:04;;;;;;;44.03;18.00;;;;;;;3.33;46.89;98701.66;2161018;82;21183;-69
2021/03/11 09:24:07;;;;;;;37.40;18.48;;;;;;;3.40;46.03;98693.23;2161042;82;21614;-68
2021/03/11 09:27:09;;;;;;;39.15;17.80;;;;;;;3.33;44.76;98695.17;2160895;82;21135;-68
2021/03/11 09:30:11;;;;;;;41.73;18.50;;;;;;;3.32;44.98;98688.31;2161038;82;21563;-67
2021/03/11 09:33:13;;;;;;;47.40;19.67;;;;;;;3.50;45.79;98683.39;2161110;82;21156;-67
2021/03/11 09:36:16;;;;;;;38.25;16.57;;;;;;;3.74;46.60;98677.81;2161261;82;21317;-67
2021/03/11 09:39:18;;;;;;;38.83;17.12;;;;;;;3.87;44.42;98662.65;2161029;82;21301;-67
2021/03/11 09:42:20;;;;;;;37.30;17.05;;;;;;;3.75;43.08;98648.34;2161199;82;21289;-68
2021/03/11 09:45:22;;;;;;;40.95;18.50;;;;;;;3.68;44.66;98638.66;2161236;82;21290;-66
2021/03/11 09:48:24;;;;;;;40.08;19.12;;;;;;;3.87;45.91;98645.78;2161876;82;21142;-68
2021/03/11 09:51:26;;;;;;;39.38;18.30;;;;;;;3.98;44.38;98635.86;2161218;82;21273;-66
2021/03/11 09:54:28;;;;;;;42.78;16.57;;;;;;;3.99;44.14;98631.04;2161163;81;21302;-67
2021/03/11 09:57:31;;;;;;;43.95;18.48;;;;;;;4.03;44.42;98622.70;2161213;82;21670;-68
2021/03/11 10:00:33;;;;;;;39.55;16.77;;;;;;;4.15;45.22;98620.92;2161180;82;21132;-67
2021/03/11 10:03:35;;;;;;;39.18;16.85;;;;;;;4.26;42.66;98616.63;2140060;82;21266;-67
2021/03/11 10:06:37;;;;;;;37.78;17.23;;;;;;;4.31;43.42;98607.76;2161183;82;21289;-67
2021/03/11 10:09:39;;;;;;;38.15;16.50;;;;;;;4.42;43.09;98609.09;2161198;82;21138;-67
2021/03/11 10:12:42;;;;;;;37.60;16.48;;;;;;;4.39;43.22;98598.82;2161307;82;21733;-67
2021/03/11 10:15:44;;;;;;;38.23;16.87;;;;;;;4.43;43.54;98585.64;2161157;82;21280;-67
2021/03/11 10:18:46;;;;;;;40.67;16.80;;;;;;;4.56;42.23;98570.42;2140433;82;21127;-67
2021/03/11 10:21:49;;;;;;;38.15;16.90;;;;;;;4.64;41.66;98560.56;2161632;82;21317;-66
2021/03/11 10:24:51;;;;;;;39.95;17.80;;;;;;;4.69;43.45;98561.67;2161178;82;21139;-67
2021/03/11 10:27:53;;;;;;;42.80;18.70;;;;;;;4.64;42.43;98557.97;2161131;82;21309;-66
2021/03/11 10:30:55;;;;;;;43.73;17.55;;;;;;;4.61;42.76;98555.94;2161283;82;21258;-66
2021/03/11 10:33:58;;;;;;;41.98;18.30;;;;;;;4.58;43.24;98544.38;2161179;82;21567;-70
2021/03/11 10:37:00;;;;;;;40.20;18.85;;;;;;;4.59;43.33;98542.17;2161213;82;21692;-67
2021/03/11 10:40:02;;;;;;;44.35;18.45;;;;;;;4.54;42.68;98533.72;2161203;82;21329;-67
2021/03/11 10:43:04;;;;;;;41.50;18.12;;;;;;;4.43;43.06;98532.88;2161170;82;21155;-67
2021/03/11 10:46:06;;;;;;;42.53;18.95;;;;;;;4.31;43.91;98528.56;2161390;82;21270;-67
2021/03/11 10:49:08;;;;;;;40.83;19.25;;;;;;;4.31;43.14;98522.07;2161236;82;21284;-68
2021/03/11 10:52:11;;;;;;;41.70;19.10;;;;;;;4.23;43.64;98516.80;2160878;82;21084;-68
2021/03/11 10:55:13;;;;;;;45.83;20.05;;;;;;;4.06;43.67;98507.91;2139913;82;21266;-67
2021/03/11 10:58:15;;;;;;;40.80;19.20;;;;;;;3.96;44.31;98506.13;2161075;82;21285;-67
2021/03/11 11:01:18;;;;;;;44.10;19.55;;;;;;;3.99;44.36;98501.27;2140060;82;21325;-66
2021/03/11 11:04:20;;;;;;;45.52;20.10;;;;;;;3.98;44.16;98487.93;2161129;82;21574;-66
2021/03/11 11:07:22;;;;;;;45.92;19.82;;;;;;;3.88;44.09;98481.38;2161460;82;21285;-66
2021/03/11 11:10:24;;;;;;;42.83;19.30;;;;;;;3.86;44.94;98474.95;2161269;82;21278;-67
2021/03/11 11:13:26;;;;;;;39.30;17.35;;;;;;;3.98;44.84;98471.06;2161142;82;21159;-67
2021/03/11 11:16:28;;;;;;;41.65;19.02;;;;;;;3.97;44.30;98464.17;2161240;82;21317;-68
2021/03/11 11:19:30;;;;;;;45.43;18.52;;;;;;;3.93;44.63;98460.84;2140156;82;21139;-67
2021/03/11 11:22:32;;;;;;;39.48;18.50;;;;;;;3.87;44.64;98457.66;2161577;82;21591;-70
2021/03/11 11:25:34;;;;;;;40.50;17.87;;;;;;;3.76;44.10;98443.80;2161109;82;21151;-67
2021/03/11 11:28:36;;;;;;;43.42;19.45;;;;;;;3.77;44.81;98437.72;2161088;82;21160;-66
2021/03/11 11:31:38;;;;;;;43.23;19.05;;;;;;;3.78;44.73;98429.03;2161220;82;21308;-66
2021/03/11 11:34:40;;;;;;;41.28;18.77;;;;;;;3.86;44.73;98423.53;2161088;82;21583;-66
2021/03/11 11:37:43;;;;;;;38.42;17.60;;;;;;;3.96;44.79;98414.46;2161025;82;21753;-67
2021/03/11 11:40:45;;;;;;;42.50;18.20;;;;;;;3.99;44.36;98410.01;2161116;82;21179;-67
2021/03/11 11:43:47;;;;;;;43.10;17.57;;;;;;;3.99;44.02;98415.63;2161238;82;21320;-66
2021/03/11 11:46:49;;;;;;;38.05;18.02;;;;;;;4.03;44.12;98410.71;2161071;82;21147;-68
2021/03/11 11:49:51;;;;;;;45.52;18.95;;;;;;;4.08;44.10;98402.73;2161294;82;21298;-67
2021/03/11 11:52:53;;;;;;;42.55;18.30;;;;;;;4.09;43.86;98398.77;2161104;82;21187;-66
2021/03/11 11:55:55;;;;;;;45.25;18.95;;;;;;;4.09;44.33;98400.06;2178283;81;21293;-67
2021/03/11 11:58:57;;;;;;;37.15;16.48;;;;;;;4.09;43.89;98392.75;2178439;81;21147;-67
2021/03/11 12:01:59;;;;;;;45.92;17.82;;;;;;;4.10;44.10;98400.47;2178831;81;21309;-67
2021/03/11 12:05:02;;;;;;;40.40;17.92;;;;;;;4.18;44.08;98404.49;2178510;81;21293;-66
2021/03/11 12:08:05;;;;;;;41.28;17.65;;;;;;;4.16;44.10;98400.20;2150611;82;21284;-66
2021/03/11 12:11:09;;;;;;;41.58;18.30;;;;;;;4.15;43.76;98396.38;2178488;82;21546;-67
2021/03/11 12:14:11;;;;;;;41.60;17.65;;;;;;;4.10;43.96;98391.84;2178423;82;21284;-69
2021/03/11 12:17:13;;;;;;;45.33;18.52;;;;;;;4.06;43.97;98383.80;2178661;81;21293;-66
2021/03/11 12:20:15;;;;;;;40.65;17.37;;;;;;;3.92;43.57;98383.92;2178804;81;21290;-66
2021/03/11 12:23:17;;;;;;;44.05;18.17;;;;;;;3.74;44.05;98372.98;2178806;81;21273;-67
2021/03/11 12:26:20;;;;;;;43.40;18.42;;;;;;;3.55;44.53;98358.59;2178564;82;21276;-67
2021/03/11 12:29:22;;;;;;;42.83;17.52;;;;;;;3.38;44.87;98357.98;2178431;81;21706;-67
2021/03/11 12:32:24;;;;;;;38.92;17.15;;;;;;;3.29;44.86;98363.08;2178489;81;21340;-66
2021/03/11 12:35:26;;;;;;;42.50;18.10;;;;;;;3.20;45.16;98366.84;2178586;81;21722;-66
2021/03/11 12:38:28;;;;;;;44.45;18.77;;;;;;;3.12;45.34;98363.72;2178450;81;21712;-66
2021/03/11 12:41:31;;;;;;;44.40;18.00;;;;;;;3.12;45.48;98364.55;2178389;81;21300;-66
2021/03/11 12:44:33;;;;;;;46.92;20.70;;;;;;;3.10;45.35;98356.44;2178616;81;21709;-66
2021/03/11 12:47:35;;;;;;;54.85;25.72;;;;;;;3.10;45.63;98355.14;2178459;81;21261;-66
2021/03/11 12:50:37;;;;;;;40.58;17.70;;;;;;;3.10;46.56;98344.78;2178494;81;21253;-67
2021/03/11 12:53:39;;;;;;;43.95;18.00;;;;;;;3.00;47.48;98348.63;2176136;81;21131;-68
2021/03/11 12:56:44;;;;;;;42.50;17.55;;;;;;;2.92;49.17;98345.04;2160926;82;21119;-66
2021/03/11 12:59:46;;;;;;;38.92;15.58;;;;;;;2.84;49.25;98339.30;2161069;82;21127;-66
2021/03/11 13:02:48;;;;;;;45.23;18.30;;;;;;;2.84;50.43;98322.45;2161047;82;21769;-66
2021/03/11 13:05:50;;;;;;;48.40;20.68;;;;;;;2.83;51.99;98328.53;2161031;82;21151;-68
2021/03/11 13:08:52;;;;;;;50.78;17.17;;;;;;;2.79;51.76;98312.27;2160959;82;21159;-66
2021/03/11 13:11:54;;;;;;;43.23;17.73;;;;;;;2.81;53.80;98311.75;2161189;82;21682;-67
2021/03/11 13:14:56;;;;;;;47.40;19.35;;;;;;;2.74;54.58;98304.69;2161236;82;21724;-66
2021/03/11 13:17:58;;;;;;;45.23;20.90;;;;;;;2.72;54.73;98290.93;2161199;82;21281;-66
2021/03/11 13:21:00;;;;;;;44.25;20.40;;;;;;;2.71;55.62;98273.69;2140183;82;21733;-66
2021/03/11 13:24:02;;;;;;;45.38;19.77;;;;;;;2.70;54.96;98273.33;2161323;82;21717;-66
2021/03/11 13:27:04;;;;;;;44.38;18.95;;;;;;;2.68;55.79;98254.85;2161228;82;21261;-66
2021/03/11 13:30:07;;;;;;;40.23;18.05;;;;;;;2.65;56.70;98257.10;2161237;82;21146;-66
2021/03/11 13:33:09;;;;;;;45.83;18.70;;;;;;;2.59;57.96;98240.05;2161248;82;21298;-66
2021/03/11 13:36:11;;;;;;;42.58;19.05;;;;;;;2.59;57.56;98221.09;2161222;82;21709;-68
2021/03/11 13:39:13;;;;;;;38.58;17.42;;;;;;;2.68;57.67;98207.78;2161192;82;21271;-66
2021/03/11 13:42:15;;;;;;;44.70;17.65;;;;;;;2.81;57.79;98186.59;2161179;82;21308;-66
2021/03/11 13:45:17;;;;;;;39.92;17.40;;;;;;;3.06;57.80;98177.36;2161546;82;21313;-66
2021/03/11 13:48:19;;;;;;;40.78;19.32;;;;;;;3.32;57.36;98182.80;2161125;82;21713;-67
2021/03/11 13:51:22;;;;;;;41.88;18.55;;;;;;;3.51;57.37;98178.96;2161276;82;21285;-66
2021/03/11 13:54:25;;;;;;;45.17;20.75;;;;;;;3.67;57.44;98176.55;2166330;81;21256;-68
2021/03/11 13:57:27;;;;;;;;;;;;;;;3.60;58.26;98163.45;2181184;82;21297;-67
2021/03/11 14:00:29;;;;;;;40.23;16.80;;;;;;;3.54;59.96;98151.59;2178565;82;20229;-66
2021/03/11 14:03:31;;;;;;;38.75;16.10;;;;;;;3.40;59.42;98148.75;2178621;81;21713;-67